PWSweather.com
Personal Weather Stations
Station Observations
GEELONGWX1
Bell Post Hill, GeelongAU

Bell Post HillGeelongAU

Lat: -38.101, Lon: 144.326

Elevation: 204

Station Type: Davis Vantage Pro2

http://www.geelongweather.com

High Low Average
Temperature 74.0°F23.3°F 59.1°F15.1°F 65.1°F18.4°F
Dew Point 61.9°F16.6°F 56.2°F13.4°F 58.8°F14.9°F
Winds 11.5 mph NE18.5 mph NE Calm Calm 3.6 mph 5.8 mph
Wind Gusts 19.6 mph31.5 mph -- 7.7 mph12.4 mph
Humidity 92% 64% 81%
Pressure 30.25 in1024.40 in 30.18 in1022.00 in -
Precipitation 0.00 in0.00 in - -
Hour Temp Dew Point Humidity Winds Wind Gusts Pressure Precip Precip Rate Daily Precip Total
12:00 AM 61.4°F16.3°C 57.8°F14.3°C 88% Calm Calm -- 30.21 in1023.0 mb - 0.00 in0.0 mm 0.00 in0.0 mm
12:10 AM 61.3°F16.3°C 57.7°F14.3°C 88% Calm Calm -- 30.21 in1023.0 mb - 0.00 in0.0 mm 0.00 in0.0 mm
12:20 AM 61.3°F16.3°C 57.7°F14.3°C 88% Calm Calm 9.2 mph14.8 kmh 30.21 in1023.0 mb - 0.00 in0.0 mm 0.00 in0.0 mm
12:30 AM 61.2°F16.2°C 57.6°F14.2°C 88% Calm Calm -- 30.21 in1023.0 mb - 0.00 in0.0 mm 0.00 in0.0 mm
12:40 AM 61.0°F16.1°C 57.4°F14.1°C 88% Calm Calm -- 30.21 in1023.0 mb - 0.00 in0.0 mm 0.00 in0.0 mm
12:50 AM 60.8°F16.0°C 57.2°F14.0°C 88% Calm Calm -- 30.20 in1022.7 mb - 0.00 in0.0 mm 0.00 in0.0 mm
01:00 AM 60.6°F15.9°C 57.0°F13.9°C 88% Calm Calm -- 30.20 in1022.7 mb - 0.00 in0.0 mm 0.00 in0.0 mm
01:10 AM 60.5°F15.8°C 56.9°F13.8°C 88% Calm Calm -- 30.20 in1022.7 mb - 0.00 in0.0 mm 0.00 in0.0 mm
01:20 AM 60.4°F15.8°C 56.8°F13.8°C 88% Calm Calm -- 30.20 in1022.7 mb - 0.00 in0.0 mm 0.00 in0.0 mm
01:30 AM 60.3°F15.7°C 57.0°F13.9°C 89% Calm Calm -- 30.20 in1022.7 mb - 0.00 in0.0 mm 0.00 in0.0 mm
01:40 AM 60.2°F15.7°C 56.9°F13.8°C 89% Calm Calm -- 30.20 in1022.7 mb - 0.00 in0.0 mm 0.00 in0.0 mm
01:50 AM 60.1°F15.6°C 56.8°F13.8°C 89% Calm Calm -- 30.20 in1022.7 mb - 0.00 in0.0 mm 0.00 in0.0 mm
02:00 AM 60.0°F15.6°C 56.7°F13.7°C 89% 5.8 mph E9.3 kmh E 9.2 mph14.8 kmh 30.20 in1022.7 mb - 0.00 in0.0 mm 0.00 in0.0 mm
02:10 AM 59.8°F15.4°C 56.6°F13.7°C 89% 4.6 mph ENE7.4 kmh ENE 5.8 mph9.3 kmh 30.20 in1022.7 mb - 0.00 in0.0 mm 0.00 in0.0 mm
02:20 AM 59.6°F15.3°C 56.4°F13.6°C 89% 2.3 mph ENE3.7 kmh ENE 6.9 mph11.1 kmh 30.20 in1022.7 mb - 0.00 in0.0 mm 0.00 in0.0 mm
02:30 AM 59.5°F15.3°C 56.3°F13.5°C 89% Calm Calm -- 30.20 in1022.7 mb - 0.00 in0.0 mm 0.00 in0.0 mm
02:40 AM 59.4°F15.2°C 56.5°F13.6°C 90% 4.6 mph ENE7.4 kmh ENE 9.2 mph14.8 kmh 30.20 in1022.7 mb - 0.00 in0.0 mm 0.00 in0.0 mm
02:50 AM 59.4°F15.2°C 56.5°F13.6°C 90% Calm Calm -- 30.19 in1022.4 mb - 0.00 in0.0 mm 0.00 in0.0 mm
03:00 AM 59.4°F15.2°C 56.5°F13.6°C 90% 3.5 mph NE5.6 kmh NE 6.9 mph11.1 kmh 30.20 in1022.7 mb - 0.00 in0.0 mm 0.00 in0.0 mm
03:10 AM 59.4°F15.2°C 56.4°F13.6°C 90% 4.6 mph ENE7.4 kmh ENE 13.8 mph22.2 kmh 30.20 in1022.7 mb - 0.00 in0.0 mm 0.00 in0.0 mm
03:20 AM 59.4°F15.2°C 56.5°F13.6°C 90% 2.3 mph NE3.7 kmh NE 9.2 mph14.8 kmh 30.20 in1022.7 mb - 0.00 in0.0 mm 0.00 in0.0 mm
03:30 AM 59.5°F15.3°C 56.6°F13.7°C 90% Calm Calm -- 30.20 in1022.7 mb - 0.00 in0.0 mm 0.00 in0.0 mm
03:40 AM 59.5°F15.3°C 56.6°F13.7°C 90% Calm Calm 6.9 mph11.1 kmh 30.20 in1022.7 mb - 0.00 in0.0 mm 0.00 in0.0 mm
03:50 AM 59.5°F15.3°C 56.6°F13.7°C 90% Calm Calm -- 30.20 in1022.7 mb - 0.00 in0.0 mm 0.00 in0.0 mm
04:00 AM 59.5°F15.3°C 56.6°F13.7°C 90% Calm Calm -- 30.20 in1022.7 mb - 0.00 in0.0 mm 0.00 in0.0 mm
04:10 AM 59.5°F15.3°C 56.5°F13.6°C 90% Calm Calm -- 30.20 in1022.7 mb - 0.00 in0.0 mm 0.00 in0.0 mm
04:20 AM 59.3°F15.2°C 56.4°F13.6°C 90% Calm Calm -- 30.20 in1022.7 mb - 0.00 in0.0 mm 0.00 in0.0 mm
04:30 AM 59.2°F15.1°C 56.3°F13.5°C 90% Calm Calm -- 30.20 in1022.7 mb - 0.00 in0.0 mm 0.00 in0.0 mm
04:40 AM 59.1°F15.1°C 56.2°F13.4°C 90% Calm Calm -- 30.20 in1022.7 mb - 0.00 in0.0 mm 0.00 in0.0 mm
04:50 AM 59.1°F15.1°C 56.2°F13.4°C 90% 2.3 mph ENE3.7 kmh ENE 3.5 mph5.6 kmh 30.20 in1022.7 mb - 0.00 in0.0 mm 0.00 in0.0 mm
05:00 AM 59.1°F15.1°C 56.5°F13.6°C 91% Calm Calm -- 30.21 in1023.0 mb - 0.00 in0.0 mm 0.00 in0.0 mm
05:10 AM 59.2°F15.1°C 56.6°F13.7°C 91% Calm Calm -- 30.21 in1023.0 mb - 0.00 in0.0 mm 0.00 in0.0 mm
05:20 AM 59.4°F15.2°C 56.7°F13.7°C 91% Calm Calm -- 30.21 in1023.0 mb - 0.00 in0.0 mm 0.00 in0.0 mm
05:30 AM 59.6°F15.3°C 57.0°F13.9°C 91% 8.1 mph ENE13.0 kmh ENE 11.5 mph18.5 kmh 30.21 in1023.0 mb - 0.00 in0.0 mm 0.00 in0.0 mm
05:40 AM 59.8°F15.4°C 57.5°F14.2°C 92% 5.8 mph NE9.3 kmh NE 11.5 mph18.5 kmh 30.21 in1023.0 mb - 0.00 in0.0 mm 0.00 in0.0 mm
05:50 AM 59.9°F15.5°C 57.6°F14.2°C 92% 5.8 mph ENE9.3 kmh ENE 11.5 mph18.5 kmh 30.21 in1023.0 mb - 0.00 in0.0 mm 0.00 in0.0 mm
06:00 AM 60.0°F15.6°C 57.7°F14.3°C 92% 1.2 mph ENE1.9 kmh ENE 9.2 mph14.8 kmh 30.21 in1023.0 mb - 0.00 in0.0 mm 0.00 in0.0 mm
06:10 AM 60.1°F15.6°C 57.8°F14.3°C 92% 6.9 mph ENE11.1 kmh ENE 8.1 mph13.0 kmh 30.21 in1023.0 mb - 0.00 in0.0 mm 0.00 in0.0 mm
06:20 AM 60.1°F15.6°C 57.5°F14.2°C 91% 2.3 mph NE3.7 kmh NE 3.5 mph5.6 kmh 30.22 in1023.4 mb - 0.00 in0.0 mm 0.00 in0.0 mm
06:30 AM 60.1°F15.6°C 57.5°F14.2°C 91% 4.6 mph ENE7.4 kmh ENE 6.9 mph11.1 kmh 30.22 in1023.4 mb - 0.00 in0.0 mm 0.00 in0.0 mm
06:40 AM 60.2°F15.7°C 57.6°F14.2°C 91% 4.6 mph ENE7.4 kmh ENE 9.2 mph14.8 kmh 30.22 in1023.4 mb - 0.00 in0.0 mm 0.00 in0.0 mm
06:50 AM 60.4°F15.8°C 57.8°F14.3°C 91% Calm Calm -- 30.23 in1023.7 mb - 0.00 in0.0 mm 0.00 in0.0 mm
07:00 AM 60.5°F15.8°C 57.9°F14.4°C 91% 5.8 mph NE9.3 kmh NE 11.5 mph18.5 kmh 30.23 in1023.7 mb - 0.00 in0.0 mm 0.00 in0.0 mm
07:10 AM 60.6°F15.9°C 58.0°F14.4°C 91% 2.3 mph NE3.7 kmh NE -- 30.23 in1023.7 mb - 0.00 in0.0 mm 0.00 in0.0 mm
07:20 AM 60.8°F16.0°C 58.2°F14.6°C 91% 3.5 mph NE5.6 kmh NE 10.4 mph16.7 kmh 30.23 in1023.7 mb - 0.00 in0.0 mm 0.00 in0.0 mm
07:30 AM 61.2°F16.2°C 58.6°F14.8°C 91% 6.9 mph NE11.1 kmh NE 11.5 mph18.5 kmh 30.23 in1023.7 mb - 0.00 in0.0 mm 0.00 in0.0 mm
07:40 AM 61.8°F16.6°C 59.2°F15.1°C 91% 5.8 mph ENE9.3 kmh ENE 8.1 mph13.0 kmh 30.23 in1023.7 mb - 0.00 in0.0 mm 0.00 in0.0 mm
07:50 AM 62.5°F16.9°C 59.5°F15.3°C 90% 3.5 mph NE5.6 kmh NE 11.5 mph18.5 kmh 30.23 in1023.7 mb - 0.00 in0.0 mm 0.00 in0.0 mm
08:00 AM 63.2°F17.3°C 59.9°F15.5°C 89% 8.1 mph NE13.0 kmh NE 11.5 mph18.5 kmh 30.23 in1023.7 mb - 0.00 in0.0 mm 0.00 in0.0 mm
08:10 AM 63.4°F17.4°C 59.5°F15.3°C 87% Calm Calm -- 30.24 in1024.0 mb - 0.00 in0.0 mm 0.00 in0.0 mm
08:20 AM 63.9°F17.7°C 59.9°F15.5°C 87% 8.1 mph NE13.0 kmh NE 11.5 mph18.5 kmh 30.24 in1024.0 mb - 0.00 in0.0 mm 0.00 in0.0 mm
08:30 AM 64.5°F18.1°C 60.2°F15.7°C 86% 4.6 mph NE7.4 kmh NE 8.1 mph13.0 kmh 30.24 in1024.0 mb - 0.00 in0.0 mm 0.00 in0.0 mm
08:40 AM 65.0°F18.3°C 60.1°F15.6°C 84% 5.8 mph NE9.3 kmh NE 16.1 mph25.9 kmh 30.24 in1024.0 mb - 0.00 in0.0 mm 0.00 in0.0 mm
08:50 AM 65.7°F18.7°C 60.4°F15.8°C 83% 2.3 mph NE3.7 kmh NE 3.5 mph5.6 kmh 30.24 in1024.0 mb - 0.00 in0.0 mm 0.00 in0.0 mm
09:00 AM 66.5°F19.2°C 60.5°F15.8°C 81% 6.9 mph ENE11.1 kmh ENE 12.7 mph20.4 kmh 30.24 in1024.0 mb - 0.00 in0.0 mm 0.00 in0.0 mm
09:10 AM 67.2°F19.6°C 60.4°F15.8°C 79% 8.1 mph NE13.0 kmh NE 11.5 mph18.5 kmh 30.24 in1024.0 mb - 0.00 in0.0 mm 0.00 in0.0 mm
09:20 AM 68.1°F20.1°C 60.6°F15.9°C 77% 2.3 mph NE3.7 kmh NE 11.5 mph18.5 kmh 30.24 in1024.0 mb - 0.00 in0.0 mm 0.00 in0.0 mm
09:30 AM 68.8°F20.4°C 60.2°F15.7°C 74% 8.1 mph NE13.0 kmh NE 10.4 mph16.7 kmh 30.24 in1024.0 mb - 0.00 in0.0 mm 0.00 in0.0 mm
09:40 AM 69.2°F20.7°C 60.2°F15.7°C 73% 8.1 mph NE13.0 kmh NE 12.7 mph20.4 kmh 30.25 in1024.4 mb - 0.00 in0.0 mm 0.00 in0.0 mm
09:50 AM 69.5°F20.8°C 60.4°F15.8°C 73% Calm Calm -- 30.25 in1024.4 mb - 0.00 in0.0 mm 0.00 in0.0 mm
10:00 AM 69.9°F21.1°C 60.5°F15.8°C 72% 6.9 mph NE11.1 kmh NE 13.8 mph22.2 kmh 30.25 in1024.4 mb - 0.00 in0.0 mm 0.00 in0.0 mm
10:10 AM 70.3°F21.3°C 60.8°F16.0°C 72% 3.5 mph NE5.6 kmh NE 15.0 mph24.1 kmh 30.25 in1024.4 mb - 0.00 in0.0 mm 0.00 in0.0 mm
10:20 AM 71.0°F21.7°C 60.7°F15.9°C 70% 9.2 mph NE14.8 kmh NE 12.7 mph20.4 kmh 30.25 in1024.4 mb - 0.00 in0.0 mm 0.00 in0.0 mm
10:30 AM 71.1°F21.7°C 60.0°F15.6°C 68% 2.3 mph NE3.7 kmh NE 6.9 mph11.1 kmh 30.24 in1024.0 mb - 0.00 in0.0 mm 0.00 in0.0 mm
10:40 AM 70.9°F21.6°C 59.8°F15.4°C 68% 6.9 mph NE11.1 kmh NE 13.8 mph22.2 kmh 30.24 in1024.0 mb - 0.00 in0.0 mm 0.00 in0.0 mm
10:50 AM 70.6°F21.4°C 59.5°F15.3°C 68% 4.6 mph NE7.4 kmh NE 11.5 mph18.5 kmh 30.24 in1024.0 mb - 0.00 in0.0 mm 0.00 in0.0 mm
11:00 AM 71.0°F21.7°C 59.9°F15.5°C 68% 4.6 mph NE7.4 kmh NE 13.8 mph22.2 kmh 30.23 in1023.7 mb - 0.00 in0.0 mm 0.00 in0.0 mm
11:10 AM 71.8°F22.1°C 59.4°F15.2°C 65% 4.6 mph NE7.4 kmh NE 10.4 mph16.7 kmh 30.23 in1023.7 mb - 0.00 in0.0 mm 0.00 in0.0 mm
11:20 AM 72.0°F22.2°C 59.6°F15.3°C 65% 4.6 mph NE7.4 kmh NE 8.1 mph13.0 kmh 30.23 in1023.7 mb - 0.00 in0.0 mm 0.00 in0.0 mm
11:30 AM 72.7°F22.6°C 60.2°F15.7°C 65% 1.2 mph NE1.9 kmh NE -- 30.23 in1023.7 mb - 0.00 in0.0 mm 0.00 in0.0 mm
11:40 AM 73.2°F22.9°C 60.7°F15.9°C 65% 4.6 mph NE7.4 kmh NE 4.6 mph7.4 kmh 30.23 in1023.7 mb - 0.00 in0.0 mm 0.00 in0.0 mm
11:50 AM 73.5°F23.1°C 60.5°F15.8°C 64% 4.6 mph NE7.4 kmh NE 8.1 mph13.0 kmh 30.22 in1023.4 mb - 0.00 in0.0 mm 0.00 in0.0 mm
12:00 PM 73.7°F23.2°C 61.2°F16.2°C 65% Calm Calm -- 30.22 in1023.4 mb - 0.00 in0.0 mm 0.00 in0.0 mm
12:10 PM 74.0°F23.3°C 61.9°F16.6°C 66% Calm Calm 12.7 mph20.4 kmh 30.22 in1023.4 mb - 0.00 in0.0 mm 0.00 in0.0 mm
12:20 PM 73.9°F23.3°C 61.0°F16.1°C 64% 2.3 mph ENE3.7 kmh ENE 11.5 mph18.5 kmh 30.21 in1023.0 mb - 0.00 in0.0 mm 0.00 in0.0 mm
12:30 PM 73.3°F22.9°C 60.8°F16.0°C 65% 8.1 mph E13.0 kmh E 13.8 mph22.2 kmh 30.21 in1023.0 mb - 0.00 in0.0 mm 0.00 in0.0 mm
12:40 PM 73.1°F22.8°C 60.6°F15.9°C 65% 9.2 mph NE14.8 kmh NE 13.8 mph22.2 kmh 30.21 in1023.0 mb - 0.00 in0.0 mm 0.00 in0.0 mm
12:50 PM 73.7°F23.2°C 61.2°F16.2°C 65% 8.1 mph ENE13.0 kmh ENE 18.4 mph29.6 kmh 30.21 in1023.0 mb - 0.00 in0.0 mm 0.00 in0.0 mm
01:00 PM 73.3°F22.9°C 60.8°F16.0°C 65% 1.2 mph ENE1.9 kmh ENE 4.6 mph7.4 kmh 30.21 in1023.0 mb - 0.00 in0.0 mm 0.00 in0.0 mm
01:10 PM 72.8°F22.7°C 60.8°F16.0°C 66% 4.6 mph NE7.4 kmh NE 15.0 mph24.1 kmh 30.20 in1022.7 mb - 0.00 in0.0 mm 0.00 in0.0 mm
01:20 PM 72.3°F22.4°C 60.7°F15.9°C 67% 6.9 mph ENE11.1 kmh ENE 11.5 mph18.5 kmh 30.20 in1022.7 mb - 0.00 in0.0 mm 0.00 in0.0 mm
01:30 PM 72.3°F22.4°C 61.1°F16.2°C 68% 4.6 mph ENE7.4 kmh ENE 4.6 mph7.4 kmh 30.19 in1022.4 mb - 0.00 in0.0 mm 0.00 in0.0 mm
01:40 PM 72.8°F22.7°C 61.2°F16.2°C 67% 3.5 mph ENE5.6 kmh ENE 12.7 mph20.4 kmh 30.20 in1022.7 mb - 0.00 in0.0 mm 0.00 in0.0 mm
01:50 PM 72.8°F22.7°C 60.8°F16.0°C 66% 1.2 mph E1.9 kmh E -- 30.20 in1022.7 mb - 0.00 in0.0 mm 0.00 in0.0 mm
02:00 PM 72.4°F22.4°C 60.8°F16.0°C 67% 4.6 mph ENE7.4 kmh ENE 10.4 mph16.7 kmh 30.20 in1022.7 mb - 0.00 in0.0 mm 0.00 in0.0 mm
02:10 PM 72.5°F22.5°C 61.3°F16.3°C 68% 9.2 mph ENE14.8 kmh ENE 16.1 mph25.9 kmh 30.20 in1022.7 mb - 0.00 in0.0 mm 0.00 in0.0 mm
02:20 PM 72.6°F22.6°C 60.6°F15.9°C 66% 3.5 mph ENE5.6 kmh ENE 12.7 mph20.4 kmh 30.19 in1022.4 mb - 0.00 in0.0 mm 0.00 in0.0 mm
02:30 PM 72.6°F22.6°C 61.4°F16.3°C 68% 3.5 mph E5.6 kmh E 9.2 mph14.8 kmh 30.19 in1022.4 mb - 0.00 in0.0 mm 0.00 in0.0 mm
02:40 PM 72.5°F22.5°C 60.9°F16.1°C 67% 6.9 mph NE11.1 kmh NE 15.0 mph24.1 kmh 30.19 in1022.4 mb - 0.00 in0.0 mm 0.00 in0.0 mm
02:50 PM 72.0°F22.2°C 60.5°F15.8°C 67% 4.6 mph ENE7.4 kmh ENE 11.5 mph18.5 kmh 30.19 in1022.4 mb - 0.00 in0.0 mm 0.00 in0.0 mm
03:00 PM 71.3°F21.8°C 60.2°F15.7°C 68% 6.9 mph NE11.1 kmh NE 13.8 mph22.2 kmh 30.18 in1022.0 mb - 0.00 in0.0 mm 0.00 in0.0 mm
03:10 PM 70.8°F21.6°C 60.1°F15.6°C 69% 8.1 mph ENE13.0 kmh ENE 16.1 mph25.9 kmh 30.18 in1022.0 mb - 0.00 in0.0 mm 0.00 in0.0 mm
03:20 PM 70.8°F21.6°C 60.1°F15.6°C 69% 5.8 mph E9.3 kmh E 8.1 mph13.0 kmh 30.19 in1022.4 mb - 0.00 in0.0 mm 0.00 in0.0 mm
03:30 PM 70.7°F21.5°C 60.4°F15.8°C 70% 10.4 mph ENE16.7 kmh ENE 18.4 mph29.6 kmh 30.18 in1022.0 mb - 0.00 in0.0 mm 0.00 in0.0 mm
03:40 PM 70.6°F21.4°C 59.9°F15.5°C 69% 5.8 mph ENE9.3 kmh ENE 9.2 mph14.8 kmh 30.18 in1022.0 mb - 0.00 in0.0 mm 0.00 in0.0 mm
03:50 PM 70.5°F21.4°C 59.8°F15.4°C 69% 6.9 mph ENE11.1 kmh ENE 16.1 mph25.9 kmh 30.18 in1022.0 mb - 0.00 in0.0 mm 0.00 in0.0 mm
04:00 PM 70.1°F21.2°C 59.8°F15.4°C 70% 11.5 mph NE18.5 kmh NE 19.6 mph31.5 kmh 30.18 in1022.0 mb - 0.00 in0.0 mm 0.00 in0.0 mm
04:10 PM 69.7°F20.9°C 59.9°F15.5°C 71% 3.5 mph ENE5.6 kmh ENE 9.2 mph14.8 kmh 30.18 in1022.0 mb - 0.00 in0.0 mm 0.00 in0.0 mm
04:20 PM 69.4°F20.8°C 59.6°F15.3°C 71% 6.9 mph ENE11.1 kmh ENE 13.8 mph22.2 kmh 30.18 in1022.0 mb - 0.00 in0.0 mm 0.00 in0.0 mm
04:30 PM 69.2°F20.7°C 59.4°F15.2°C 71% 1.2 mph E1.9 kmh E 12.7 mph20.4 kmh 30.18 in1022.0 mb - 0.00 in0.0 mm 0.00 in0.0 mm
04:40 PM 68.7°F20.4°C 59.3°F15.2°C 72% 5.8 mph E9.3 kmh E 19.6 mph31.5 kmh 30.18 in1022.0 mb - 0.00 in0.0 mm 0.00 in0.0 mm
04:50 PM 68.2°F20.1°C 59.2°F15.1°C 73% 8.1 mph E13.0 kmh E 11.5 mph18.5 kmh 30.18 in1022.0 mb - 0.00 in0.0 mm 0.00 in0.0 mm
05:00 PM 67.8°F19.9°C 59.2°F15.1°C 74% 1.2 mph E1.9 kmh E 15.0 mph24.1 kmh 30.18 in1022.0 mb - 0.00 in0.0 mm 0.00 in0.0 mm
05:10 PM 67.5°F19.7°C 59.3°F15.2°C 75% 4.6 mph ENE7.4 kmh ENE 12.7 mph20.4 kmh 30.18 in1022.0 mb - 0.00 in0.0 mm 0.00 in0.0 mm
05:20 PM 67.1°F19.5°C 58.9°F14.9°C 75% 5.8 mph NE9.3 kmh NE 18.4 mph29.6 kmh 30.18 in1022.0 mb - 0.00 in0.0 mm 0.00 in0.0 mm
05:30 PM 66.7°F19.3°C 58.9°F14.9°C 76% 8.1 mph NE13.0 kmh NE 17.3 mph27.8 kmh 30.19 in1022.4 mb - 0.00 in0.0 mm 0.00 in0.0 mm
05:40 PM 66.4°F19.1°C 59.0°F15.0°C 77% 6.9 mph ENE11.1 kmh ENE 10.4 mph16.7 kmh 30.18 in1022.0 mb - 0.00 in0.0 mm 0.00 in0.0 mm
05:50 PM 66.1°F18.9°C 59.1°F15.1°C 78% 5.8 mph ENE9.3 kmh ENE 15.0 mph24.1 kmh 30.18 in1022.0 mb - 0.00 in0.0 mm 0.00 in0.0 mm
06:00 PM 65.8°F18.8°C 59.1°F15.1°C 79% 8.1 mph ENE13.0 kmh ENE 13.8 mph22.2 kmh 30.18 in1022.0 mb - 0.00 in0.0 mm 0.00 in0.0 mm
06:10 PM 65.5°F18.6°C 59.2°F15.1°C 80% 6.9 mph ENE11.1 kmh ENE 15.0 mph24.1 kmh 30.18 in1022.0 mb - 0.00 in0.0 mm 0.00 in0.0 mm
06:20 PM 65.2°F18.4°C 59.2°F15.1°C 81% 6.9 mph ENE11.1 kmh ENE 9.2 mph14.8 kmh 30.18 in1022.0 mb - 0.00 in0.0 mm 0.00 in0.0 mm
06:30 PM 64.9°F18.3°C 59.3°F15.2°C 82% 3.5 mph ENE5.6 kmh ENE 6.9 mph11.1 kmh 30.18 in1022.0 mb - 0.00 in0.0 mm 0.00 in0.0 mm
06:40 PM 64.6°F18.1°C 59.3°F15.2°C 83% 9.2 mph ENE14.8 kmh ENE 16.1 mph25.9 kmh 30.19 in1022.4 mb - 0.00 in0.0 mm 0.00 in0.0 mm
06:50 PM 64.4°F18.0°C 59.1°F15.1°C 83% 8.1 mph ENE13.0 kmh ENE 13.8 mph22.2 kmh 30.19 in1022.4 mb - 0.00 in0.0 mm 0.00 in0.0 mm
07:00 PM 64.2°F17.9°C 58.9°F14.9°C 83% Calm Calm -- 30.19 in1022.4 mb - 0.00 in0.0 mm 0.00 in0.0 mm
07:10 PM 64.0°F17.8°C 59.1°F15.1°C 84% 4.6 mph ENE7.4 kmh ENE 6.9 mph11.1 kmh 30.20 in1022.7 mb - 0.00 in0.0 mm 0.00 in0.0 mm
07:20 PM 64.0°F17.8°C 59.1°F15.1°C 84% 6.9 mph ENE11.1 kmh ENE 8.1 mph13.0 kmh 30.20 in1022.7 mb - 0.00 in0.0 mm 0.00 in0.0 mm
07:30 PM 63.8°F17.7°C 58.9°F14.9°C 84% 1.2 mph E1.9 kmh E 9.2 mph14.8 kmh 30.20 in1022.7 mb - 0.00 in0.0 mm 0.00 in0.0 mm
07:40 PM 63.7°F17.6°C 58.8°F14.9°C 84% 2.3 mph ENE3.7 kmh ENE 10.4 mph16.7 kmh 30.21 in1023.0 mb - 0.00 in0.0 mm 0.00 in0.0 mm
07:50 PM 63.6°F17.6°C 58.7°F14.8°C 84% 3.5 mph E5.6 kmh E -- 30.21 in1023.0 mb - 0.00 in0.0 mm 0.00 in0.0 mm
08:00 PM 63.5°F17.5°C 58.6°F14.8°C 84% Calm Calm -- 30.21 in1023.0 mb - 0.00 in0.0 mm 0.00 in0.0 mm
08:10 PM 63.4°F17.4°C 58.8°F14.9°C 85% 6.9 mph ENE11.1 kmh ENE 10.4 mph16.7 kmh 30.21 in1023.0 mb - 0.00 in0.0 mm 0.00 in0.0 mm
08:20 PM 63.3°F17.4°C 58.7°F14.8°C 85% 5.8 mph ENE9.3 kmh ENE 9.2 mph14.8 kmh 30.22 in1023.4 mb - 0.00 in0.0 mm 0.00 in0.0 mm
08:30 PM 63.2°F17.3°C 58.6°F14.8°C 85% Calm Calm 1.2 mph1.9 kmh 30.23 in1023.7 mb - 0.00 in0.0 mm 0.00 in0.0 mm
08:40 PM 63.2°F17.3°C 58.6°F14.8°C 85% 2.3 mph ENE3.7 kmh ENE 10.4 mph16.7 kmh 30.23 in1023.7 mb - 0.00 in0.0 mm 0.00 in0.0 mm
08:50 PM 63.1°F17.3°C 58.5°F14.7°C 85% Calm Calm -- 30.24 in1024.0 mb - 0.00 in0.0 mm 0.00 in0.0 mm
09:00 PM 63.0°F17.2°C 58.4°F14.7°C 85% Calm Calm -- 30.24 in1024.0 mb - 0.00 in0.0 mm 0.00 in0.0 mm
09:10 PM 62.9°F17.2°C 58.6°F14.8°C 86% 4.6 mph ENE7.4 kmh ENE 6.9 mph11.1 kmh 30.24 in1024.0 mb - 0.00 in0.0 mm 0.00 in0.0 mm
09:20 PM 62.8°F17.1°C 58.5°F14.7°C 86% Calm Calm -- 30.23 in1023.7 mb - 0.00 in0.0 mm 0.00 in0.0 mm
09:30 PM 62.8°F17.1°C 58.9°F14.9°C 87% 1.2 mph NE1.9 kmh NE 6.9 mph11.1 kmh 30.23 in1023.7 mb - 0.00 in0.0 mm 0.00 in0.0 mm
09:40 PM 62.8°F17.1°C 58.9°F14.9°C 87% Calm Calm 4.6 mph7.4 kmh 30.23 in1023.7 mb - 0.00 in0.0 mm 0.00 in0.0 mm
09:50 PM 62.8°F17.1°C 58.9°F14.9°C 87% 4.6 mph NE7.4 kmh NE 8.1 mph13.0 kmh 30.22 in1023.4 mb - 0.00 in0.0 mm 0.00 in0.0 mm
10:00 PM 62.8°F17.1°C 58.9°F14.9°C 87% Calm Calm 4.6 mph7.4 kmh 30.23 in1023.7 mb - 0.00 in0.0 mm 0.00 in0.0 mm
10:10 PM 62.7°F17.1°C 58.8°F14.9°C 87% Calm Calm -- 30.23 in1023.7 mb - 0.00 in0.0 mm 0.00 in0.0 mm
10:20 PM 62.6°F17.0°C 58.7°F14.8°C 87% 3.5 mph NE5.6 kmh NE 10.4 mph16.7 kmh 30.23 in1023.7 mb - 0.00 in0.0 mm 0.00 in0.0 mm
10:30 PM 62.5°F16.9°C 58.6°F14.8°C 87% 1.2 mph NE1.9 kmh NE 5.8 mph9.3 kmh 30.23 in1023.7 mb - 0.00 in0.0 mm 0.00 in0.0 mm
10:40 PM 62.4°F16.9°C 58.8°F14.9°C 88% 1.2 mph NE1.9 kmh NE 8.1 mph13.0 kmh 30.22 in1023.4 mb - 0.00 in0.0 mm 0.00 in0.0 mm
10:50 PM 62.3°F16.8°C 58.4°F14.7°C 87% 3.5 mph NE5.6 kmh NE 4.6 mph7.4 kmh 30.23 in1023.7 mb - 0.00 in0.0 mm 0.00 in0.0 mm
11:00 PM 62.3°F16.8°C 58.4°F14.7°C 87% 6.9 mph NE11.1 kmh NE 11.5 mph18.5 kmh 30.22 in1023.4 mb - 0.00 in0.0 mm 0.00 in0.0 mm
11:10 PM 62.3°F16.8°C 58.1°F14.5°C 86% Calm Calm 8.1 mph13.0 kmh 30.22 in1023.4 mb - 0.00 in0.0 mm 0.00 in0.0 mm
11:20 PM 62.3°F16.8°C 58.1°F14.5°C 86% Calm Calm -- 30.22 in1023.4 mb - 0.00 in0.0 mm 0.00 in0.0 mm
11:30 PM 62.2°F16.8°C 58.0°F14.4°C 86% Calm Calm -- 30.22 in1023.4 mb - 0.00 in0.0 mm 0.00 in0.0 mm
11:40 PM 62.1°F16.7°C 57.8°F14.3°C 86% 1.2 mph NE1.9 kmh NE -- 30.22 in1023.4 mb - 0.00 in0.0 mm 0.00 in0.0 mm
11:50 PM 61.9°F16.6°C 57.7°F14.3°C 86% 2.3 mph NE3.7 kmh NE -- 30.21 in1023.0 mb - 0.00 in0.0 mm 0.00 in0.0 mm